| |
Missouri Department of Transportation

Social Media Facebook Twitter Flickr Blog YouTube RSS

Current METAR Information for All MoDOT Locations 
AWOS Home - General Info for all Airports
Current AWOS for all Airports - Current METAR for all Airports
Glossary - Disclaimer - Other Links


Automated Weather Observation System
Date: 07-30-2014
 
Location Current METAR Record
HANNIBAL METAR KHAE 302109Z AUTO 34004KT 10SM CLR 28/11 A3007 RMK AO2
HARRISONVILLE  No current data available
LEBANON METAR KLBO 302105Z AUTO 00000KT 10SM CLR 23/13 A3011 RMK AO2
MALDEN METAR KMAW 302109Z AUTO 21007KT 10SM SCT044 SCT050 26/15 A3009 RMK AO2
MARSHALL METAR KMHL 302123Z AUTO 01003KT 7SM BKN050 OVC065 27/15 A3008 RMK AO2
MARYVILLE  No current data available
MEXICO METAR KMYJ 302059Z AUTO 00000KT 10SM SCT050 OVC070 27/17 A3007 RMK AO2
MOBERLY METAR KMBY 302059Z AUTO 00000KT 10SM CLR 28/12 A3008 RMK AO2
NEVADA METAR KNVD 302128Z AUTO 34003KT 10SM BKN055 22/18 A3010 RMK AO2
PIEDMONT  No current data available
SIKESTON  No current data available
SULLIVAN METAR KUUV 302111Z AUTO 25004KT 10SM BKN047 BKN055 27/14 A3009 RMK AO2
WARSAW  No current data available
About Us
How Do I...
Contact Us
Missouri Department of Transportation
Central Office
105 W. Capitol Avenue
Jefferson City, MO 65102
1-888-ASK-MODOT (275-6636)
1-866-831-6277 (Motor Carrier Services)
Drivers License Offices
horz_bar
| | |
Missouri State Government
© 2013 Missouri Department of Transportation. All Rights Reserved.   Privacy Policy.
 
 
 
 
RSS FeedYoutubeBlogFlickrTwitter Facebook